Time;durP1;ratioP1;P1;durP2;ratioP2;P2;SDS_P1;SDS_P2;PMS_P1;PMS_P2;Temp;Humidity;BMP_temperature;BMP_pressure;BME280_temperature;BME280_humidity;BME280_pressure;Samples;Min_cycle;Max_cycle;Signal;HPM_P1;HPM_P2
2021/01/20 00:00:44;;;;;;;4.20;2.00;;;4.50;99.90;;;;;;5055349;28;20029;-59
2021/01/20 00:03:10;;;;;;;4.88;2.20;;;4.60;99.90;;;;;;5053893;28;20086;-60
2021/01/20 00:05:36;;;;;;;4.72;2.42;;;4.50;99.90;;;;;;5054389;28;20029;-60
2021/01/20 00:08:03;;;;;;;4.97;2.05;;;4.60;99.90;;;;;;5055302;28;20025;-60
2021/01/20 00:10:28;;;;;;;3.60;1.80;;;4.60;99.90;;;;;;5054365;28;20032;-60
2021/01/20 00:12:54;;;;;;;3.78;1.98;;;4.70;99.90;;;;;;5054734;28;20428;-60
2021/01/20 00:15:25;;;;;;;3.97;1.65;;;4.80;99.90;;;;;;5055482;28;20084;-60
2021/01/20 00:17:51;;;;;;;4.05;1.80;;;4.90;99.90;;;;;;5055239;28;20025;-60
2021/01/20 00:20:17;;;;;;;4.07;1.88;;;5.00;99.90;;;;;;5053882;28;20037;-60
2021/01/20 00:22:46;;;;;;;4.53;2.00;;;5.10;99.90;;;;;;5055116;28;20118;-60
2021/01/20 00:25:13;;;;;;;6.80;1.60;;;5.10;99.90;;;;;;5054786;28;20020;-60
2021/01/20 00:27:39;;;;;;;4.28;2.03;;;5.10;99.90;;;;;;5053958;28;20025;-60
2021/01/20 00:30:08;;;;;;;4.93;2.15;;;5.10;99.90;;;;;;5055033;28;20029;-60
2021/01/20 00:32:34;;;;;;;3.58;1.92;;;5.00;99.90;;;;;;5053580;28;20032;-60
2021/01/20 00:35:03;;;;;;;6.90;2.55;;;5.00;99.90;;;;;;5054630;28;20112;-60
2021/01/20 00:37:28;;;;;;;4.38;1.95;;;5.00;99.90;;;;;;5054664;28;20025;-60
2021/01/20 00:39:54;;;;;;;4.88;2.65;;;5.00;99.90;;;;;;5054625;28;20036;-60
2021/01/20 00:42:20;;;;;;;6.10;1.83;;;4.90;99.90;;;;;;5054960;28;20025;-60
2021/01/20 00:44:46;;;;;;;5.55;2.25;;;4.80;99.90;;;;;;5054582;28;20029;-60
2021/01/20 00:47:12;;;;;;;4.00;1.75;;;4.80;99.90;;;;;;5053329;28;20037;-60
2021/01/20 00:49:38;;;;;;;4.53;1.83;;;4.80;99.90;;;;;;5054562;28;20036;-60
2021/01/20 00:52:04;;;;;;;4.05;1.92;;;4.80;99.90;;;;;;5054341;28;20028;-60
2021/01/20 00:54:30;;;;;;;5.32;2.20;;;4.80;99.90;;;;;;5053176;28;20044;-60
2021/01/20 00:56:56;;;;;;;4.95;1.85;;;4.80;99.90;;;;;;5054476;28;20097;-60
2021/01/20 00:59:22;;;;;;;4.05;1.77;;;4.90;99.90;;;;;;5054622;28;20037;-60
2021/01/20 01:01:48;;;;;;;3.88;1.90;;;4.90;99.90;;;;;;5053071;28;20064;-60
2021/01/20 01:04:14;;;;;;;4.95;2.10;;;4.90;99.90;;;;;;5054348;28;20041;-60
2021/01/20 01:06:40;;;;;;;7.47;2.08;;;4.80;99.90;;;;;;5054196;28;20043;-60
2021/01/20 01:09:05;;;;;;;5.30;2.08;;;4.70;99.90;;;;;;5053872;28;20021;-60
2021/01/20 01:11:32;;;;;;;4.88;2.22;;;4.70;99.90;;;;;;5054063;28;20106;-60
2021/01/20 01:13:58;;;;;;;3.50;1.50;;;4.60;99.90;;;;;;5052424;28;20040;-60
2021/01/20 01:16:24;;;;;;;5.10;2.58;;;4.50;99.90;;;;;;5054009;28;20031;-60
2021/01/20 01:18:50;;;;;;;6.75;2.28;;;4.50;99.90;;;;;;5054226;28;20081;-60
2021/01/20 01:21:16;;;;;;;3.47;1.70;;;4.40;99.90;;;;;;5053978;28;20036;-60
2021/01/20 01:23:42;;;;;;;4.32;1.85;;;4.40;99.90;;;;;;5053804;28;20060;-60
2021/01/20 01:26:08;;;;;;;6.22;2.47;;;4.40;99.90;;;;;;5053616;28;20055;-60
2021/01/20 01:28:34;;;;;;;3.63;2.20;;;4.40;99.90;;;;;;5052466;28;20033;-60
2021/01/20 01:31:00;;;;;;;4.47;1.90;;;4.40;99.90;;;;;;5053668;28;20071;-60
2021/01/20 01:33:26;;;;;;;3.40;1.65;;;4.40;99.90;;;;;;5053464;28;20029;-60
2021/01/20 01:35:52;;;;;;;4.07;2.08;;;4.50;99.90;;;;;;5052482;28;20033;-60
2021/01/20 01:38:18;;;;;;;4.40;1.88;;;4.50;99.90;;;;;;5052214;28;20034;-60
2021/01/20 01:40:44;;;;;;;3.00;2.08;;;4.40;99.90;;;;;;5053508;28;20028;-60
2021/01/20 01:43:10;;;;;;;3.80;1.65;;;4.40;99.90;;;;;;5053594;28;20032;-60
2021/01/20 01:45:36;;;;;;;3.50;1.77;;;4.40;99.90;;;;;;5053366;28;20128;-60
2021/01/20 01:48:02;;;;;;;5.55;2.25;;;4.40;99.90;;;;;;5053235;28;20041;-60
2021/01/20 01:50:28;;;;;;;2.53;1.70;;;4.40;99.90;;;;;;5053645;28;20024;-60
2021/01/20 01:52:54;;;;;;;4.15;2.00;;;4.40;99.90;;;;;;5053742;28;20033;-60
2021/01/20 01:55:20;;;;;;;7.03;2.03;;;4.30;99.90;;;;;;5052245;28;20025;-59
2021/01/20 01:57:46;;;;;;;7.65;3.05;;;4.30;99.90;;;;;;5051114;28;20032;-59
2021/01/20 02:00:14;;;;;;;4.05;1.80;;;4.20;99.90;;;;;;5053088;28;20033;-60
2021/01/20 02:02:41;;;;;;;5.40;2.20;;;4.30;99.90;;;;;;5053341;28;20040;-60
2021/01/20 02:05:08;;;;;;;5.28;1.80;;;4.30;99.90;;;;;;5053173;28;20083;-60
2021/01/20 02:07:35;;;;;;;4.95;1.90;;;4.20;99.90;;;;;;5053095;28;20040;-60
2021/01/20 02:10:04;;;;;;;4.20;2.15;;;4.30;99.90;;;;;;5035130;28;20028;-60
2021/01/20 02:13:09;;;;;;;4.45;1.60;;;4.30;99.90;;;;;;5051403;28;20071;-59
2021/01/20 02:16:02;;;;;;;4.43;1.77;;;4.30;99.90;;;;;;5052894;28;20041;-59
2021/01/20 02:18:32;;;;;;;6.65;1.70;;;4.30;99.90;;;;;;5052887;28;20040;-60
2021/01/20 02:21:32;;;;;;;4.82;2.08;;;4.30;99.90;;;;;;5051636;28;20056;-60
2021/01/20 02:24:05;;;;;;;6.30;2.10;;;4.20;99.90;;;;;;5052823;28;20037;-61
2021/01/20 02:27:08;;;;;;;5.88;2.10;;;4.30;99.90;;;;;;5051559;28;20079;-61
2021/01/20 02:30:06;;;;;;;5.32;1.83;;;4.30;99.90;;;;;;5052914;28;20037;-60
2021/01/20 02:32:35;;;;;;;3.58;2.00;;;4.30;99.90;;;;;;5051449;28;20033;-61
2021/01/20 02:35:04;;;;;;;4.40;1.98;;;4.30;99.90;;;;;;5051582;28;20035;-60
2021/01/20 02:37:33;;;;;;;4.13;1.70;;;4.30;99.90;;;;;;5034868;28;20196;-60
2021/01/20 02:39:59;;;;;;;4.53;2.03;;;4.40;99.90;;;;;;5052781;28;20048;-60
2021/01/20 02:42:26;;;;;;;3.85;1.88;;;4.40;99.90;;;;;;5034727;28;20112;-59
2021/01/20 02:44:52;;;;;;;4.40;1.92;;;4.40;99.90;;;;;;5051457;28;20029;-60
2021/01/20 02:47:18;;;;;;;3.15;1.67;;;4.50;99.90;;;;;;5052453;28;20169;-61
2021/01/20 02:49:44;;;;;;;4.22;1.80;;;4.40;99.90;;;;;;5051079;28;20029;-59
2021/01/20 02:52:17;;;;;;;3.75;1.60;;;4.30;99.90;;;;;;5051274;28;20032;-60
2021/01/20 02:54:45;;;;;;;6.18;2.08;;;4.30;99.90;;;;;;5051165;28;20033;-59
2021/01/20 02:57:13;;;;;;;5.10;2.38;;;4.20;99.90;;;;;;5052326;28;20108;-61
2021/01/20 02:59:45;;;;;;;4.45;1.85;;;4.20;99.90;;;;;;5050939;28;20033;-60
2021/01/20 03:02:16;;;;;;;4.78;1.95;;;4.20;99.90;;;;;;5050907;28;20037;-60
2021/01/20 03:04:46;;;;;;;3.50;1.75;;;4.30;99.90;;;;;;5051115;28;20029;-60
2021/01/20 03:07:14;;;;;;;3.42;1.73;;;4.30;99.90;;;;;;5051025;28;20043;-61
2021/01/20 03:09:39;;;;;;;4.55;2.00;;;4.20;99.90;;;;;;5050541;28;20033;-60
2021/01/20 03:12:06;;;;;;;4.63;2.38;;;4.10;99.90;;;;;;5051723;28;20037;-61
2021/01/20 03:14:33;;;;;;;4.82;1.92;;;4.10;99.90;;;;;;5051721;28;20045;-59
2021/01/20 03:17:01;;;;;;;6.20;2.50;;;4.10;99.90;;;;;;5052007;28;20040;-59
2021/01/20 03:19:27;;;;;;;3.92;1.85;;;4.10;99.90;;;;;;5034397;28;20033;-60
2021/01/20 03:21:53;;;;;;;5.53;2.10;;;4.10;99.90;;;;;;5051972;28;20033;-60
2021/01/20 03:24:18;;;;;;;4.95;2.00;;;4.10;99.90;;;;;;5050544;28;20059;-62
2021/01/20 03:26:44;;;;;;;3.95;1.80;;;4.10;99.90;;;;;;5051847;28;20025;-60
2021/01/20 03:29:10;;;;;;;7.57;1.98;;;4.00;99.90;;;;;;5051937;28;20241;-60
2021/01/20 03:31:36;;;;;;;5.70;2.60;;;4.00;99.90;;;;;;5050704;28;20025;-60
2021/01/20 03:34:02;;;;;;;4.53;2.10;;;4.00;99.90;;;;;;5052036;28;20044;-60
2021/01/20 03:36:28;;;;;;;5.15;2.17;;;4.00;99.90;;;;;;5051619;28;20059;-60
2021/01/20 03:38:54;;;;;;;4.32;2.15;;;4.00;99.90;;;;;;5050608;28;20060;-60
2021/01/20 03:41:20;;;;;;;5.32;2.25;;;3.90;99.90;;;;;;5051597;28;20025;-60
2021/01/20 03:43:46;;;;;;;4.75;2.40;;;3.80;99.90;;;;;;5051965;28;20033;-61
2021/01/20 03:46:12;;;;;;;4.57;1.98;;;3.80;99.90;;;;;;5051945;28;20033;-61
2021/01/20 03:48:38;;;;;;;5.75;2.00;;;3.90;99.90;;;;;;5051942;28;20075;-60
2021/01/20 03:51:05;;;;;;;3.97;1.92;;;3.80;99.90;;;;;;5051958;28;20025;-60
2021/01/20 03:53:31;;;;;;;5.40;2.28;;;3.80;99.90;;;;;;5050332;28;20107;-60
2021/01/20 03:55:57;;;;;;;7.78;2.10;;;3.70;99.90;;;;;;5051923;28;20116;-60
2021/01/20 03:58:22;;;;;;;6.88;2.33;;;3.70;99.90;;;;;;5051770;28;20099;-61
2021/01/20 04:00:48;;;;;;;4.00;2.08;;;3.70;99.90;;;;;;5051576;28;20054;-60
2021/01/20 04:03:14;;;;;;;4.03;1.60;;;3.70;99.90;;;;;;5051372;28;20099;-59
2021/01/20 04:05:40;;;;;;;4.75;2.28;;;3.70;99.90;;;;;;5050359;28;20033;-60
2021/01/20 04:08:06;;;;;;;6.30;2.35;;;3.60;99.90;;;;;;5051395;28;20107;-61
2021/01/20 04:10:32;;;;;;;3.75;1.73;;;3.60;99.90;;;;;;5051527;28;20040;-61
2021/01/20 04:12:58;;;;;;;4.95;2.28;;;3.60;99.90;;;;;;5033446;28;20059;-59
2021/01/20 04:15:24;;;;;;;4.63;1.70;;;3.60;99.90;;;;;;5051252;28;20102;-60
2021/01/20 04:17:50;;;;;;;3.30;1.80;;;3.50;99.90;;;;;;5051474;28;20104;-60
2021/01/20 04:20:16;;;;;;;7.90;2.22;;;3.60;99.90;;;;;;5052034;28;20060;-61
2021/01/20 04:22:42;;;;;;;3.35;1.55;;;3.60;99.90;;;;;;5054125;28;20034;-61
2021/01/20 04:25:10;;;;;;;5.93;2.08;;;3.70;99.90;;;;;;5055028;28;20116;-60
2021/01/20 04:27:36;;;;;;;4.72;1.95;;;3.70;99.90;;;;;;5054931;28;20032;-60
2021/01/20 04:30:05;;;;;;;4.57;2.38;;;3.70;99.90;;;;;;5054944;28;20080;-59
2021/01/20 04:32:31;;;;;;;5.63;2.10;;;3.80;99.90;;;;;;5053478;28;20150;-60
2021/01/20 04:34:57;;;;;;;4.28;2.05;;;3.90;99.90;;;;;;5055067;28;20170;-60
2021/01/20 04:37:23;;;;;;;4.10;1.90;;;3.80;99.90;;;;;;5054520;28;20056;-60
2021/01/20 04:39:49;;;;;;;4.82;2.10;;;3.80;99.90;;;;;;5054773;28;20025;-60
2021/01/20 04:42:15;;;;;;;4.35;2.22;;;3.90;99.90;;;;;;5054449;28;20025;-59
2021/01/20 04:44:41;;;;;;;3.53;1.95;;;4.00;99.90;;;;;;5043353;28;20393;-59
2021/01/20 04:47:07;;;;;;;5.20;1.98;;;4.00;99.90;;;;;;5034606;28;20025;-60
2021/01/20 04:49:34;;;;;;;2.63;1.48;;;4.00;99.90;;;;;;5019578;28;20478;-59
2021/01/20 04:52:02;;;;;;;4.63;2.08;;;4.00;99.90;;;;;;5014875;28;20096;-59
2021/01/20 04:54:31;;;;;;;5.35;1.92;;;4.00;99.90;;;;;;4997006;28;20108;-59
2021/01/20 04:56:58;;;;;;;5.38;2.28;;;4.00;99.90;;;;;;5014897;28;20026;-59
2021/01/20 04:59:29;;;;;;;3.63;1.75;;;4.10;99.90;;;;;;5016908;28;20041;-59
2021/01/20 05:01:56;;;;;;;3.22;1.70;;;4.10;99.90;;;;;;5014563;28;20053;-59
2021/01/20 05:04:23;;;;;;;3.08;1.77;;;4.10;99.90;;;;;;5013164;28;20033;-61
2021/01/20 05:06:50;;;;;;;4.13;2.03;;;4.10;99.90;;;;;;5009740;28;20022;-60
2021/01/20 05:09:16;;;;;;;4.13;2.10;;;4.20;99.90;;;;;;4985532;28;20034;-60
2021/01/20 05:11:44;;;;;;;3.90;1.75;;;4.20;99.90;;;;;;4994810;28;20026;-60
2021/01/20 05:14:13;;;;;;;2.78;1.40;;;4.30;99.90;;;;;;4994410;28;20082;-60
2021/01/20 05:16:41;;;;;;;3.40;1.58;;;4.30;99.90;;;;;;4994596;28;20060;-60
2021/01/20 05:19:08;;;;;;;4.28;1.60;;;4.30;99.90;;;;;;4996062;28;20041;-60
2021/01/20 05:21:34;;;;;;;4.10;1.92;;;4.30;99.90;;;;;;5033172;28;20028;-60
2021/01/20 05:24:22;;;;;;;4.32;1.75;;;4.30;99.90;;;;;;5031855;28;20083;-59
2021/01/20 05:26:50;;;;;;;4.40;1.90;;;4.40;99.90;;;;;;5034110;28;20032;-60
2021/01/20 05:29:17;;;;;;;5.13;2.00;;;4.40;99.90;;;;;;5033842;28;20029;-60
2021/01/20 05:31:44;;;;;;;2.92;1.50;;;4.40;99.90;;;;;;5033789;28;20036;-60
2021/01/20 05:34:32;;;;;;;3.50;1.60;;;4.50;99.90;;;;;;5033453;28;20037;-60
2021/01/20 05:37:08;;;;;;;3.78;2.10;;;4.50;99.90;;;;;;5033791;28;20065;-59
2021/01/20 05:39:35;;;;;;;3.97;1.85;;;4.50;99.90;;;;;;5032187;28;20029;-60
2021/01/20 05:42:07;;;;;;;2.55;1.40;;;4.50;99.90;;;;;;5033915;28;20033;-60
2021/01/20 05:44:35;;;;;;;3.17;1.52;;;4.60;99.90;;;;;;5033654;28;20030;-60
2021/01/20 05:47:09;;;;;;;4.13;1.45;;;4.70;99.90;;;;;;5033801;28;20044;-61
2021/01/20 05:49:36;;;;;;;5.88;1.67;;;4.70;99.90;;;;;;5028658;28;20034;-59
2021/01/20 05:52:02;;;;;;;3.58;1.65;;;4.60;99.90;;;;;;5012732;28;20076;-58
2021/01/20 05:54:36;;;;;;;3.78;1.52;;;4.60;99.90;;;;;;5011870;28;20030;-59
2021/01/20 05:57:20;;;;;;;4.68;1.20;;;4.60;99.90;;;;;;5012747;28;20041;-59
2021/01/20 05:59:50;;;;;;;4.78;1.75;;;4.60;99.90;;;;;;5012590;28;20056;-60
2021/01/20 06:02:19;;;;;;;3.42;1.75;;;4.60;99.90;;;;;;5013277;28;20128;-58
2021/01/20 06:04:45;;;;;;;6.68;1.67;;;4.60;99.90;;;;;;5013284;28;20072;-59
2021/01/20 06:07:15;;;;;;;4.20;1.85;;;4.60;99.90;;;;;;5012417;28;20057;-60
2021/01/20 06:09:45;;;;;;;4.20;1.50;;;4.60;99.90;;;;;;5013542;28;20022;-59
2021/01/20 06:12:14;;;;;;;2.85;1.38;;;4.60;99.90;;;;;;5012311;28;20044;-59
2021/01/20 06:14:41;;;;;;;4.78;1.33;;;4.60;99.90;;;;;;5012961;28;20046;-58
2021/01/20 06:17:29;;;;;;;2.40;1.38;;;4.60;99.90;;;;;;5013196;28;20025;-58
2021/01/20 06:20:05;;;;;;;2.60;1.20;;;4.60;99.90;;;;;;5018995;28;20121;-58
2021/01/20 06:22:34;;;;;;;2.90;1.27;;;4.60;99.90;;;;;;5032732;28;20084;-58
2021/01/20 06:25:33;;;;;;;4.57;1.60;;;4.70;99.90;;;;;;5032725;28;20038;-58
2021/01/20 06:28:06;;;;;;;3.28;1.50;;;4.60;99.90;;;;;;5029580;28;20036;-59
2021/01/20 06:30:42;;;;;;;3.67;1.67;;;4.70;99.90;;;;;;5032514;28;20039;-60
2021/01/20 06:33:12;;;;;;;3.63;1.50;;;4.80;99.90;;;;;;5032700;28;20045;-59
2021/01/20 06:35:50;;;;;;;5.15;1.50;;;4.80;99.90;;;;;;5031396;28;20037;-57
2021/01/20 06:38:28;;;;;;;3.20;1.35;;;4.80;99.90;;;;;;5032370;28;20021;-56
2021/01/20 06:41:07;;;;;;;2.45;1.33;;;4.80;99.90;;;;;;5032468;28;20037;-57
2021/01/20 06:43:45;;;;;;;2.50;1.08;;;4.90;99.90;;;;;;5030483;28;20060;-58
2021/01/20 06:46:27;;;;;;;2.72;1.25;;;5.00;99.90;;;;;;5032370;28;20061;-59
2021/01/20 06:48:56;;;;;;;3.88;1.33;;;5.00;99.90;;;;;;5030908;28;20124;-55
2021/01/20 06:51:27;;;;;;;4.80;1.67;;;5.10;99.90;;;;;;5012671;28;20036;-56
2021/01/20 06:54:02;;;;;;;3.13;1.35;;;5.10;99.90;;;;;;5011505;28;20030;-56
2021/01/20 06:56:45;;;;;;;3.38;1.83;;;5.20;99.90;;;;;;5012592;28;20053;-57
2021/01/20 06:59:25;;;;;;;3.20;1.45;;;5.20;99.90;;;;;;5012604;28;20044;-58
2021/01/20 07:02:03;;;;;;;4.03;1.50;;;5.30;99.90;;;;;;5012427;28;20033;-54
2021/01/20 07:04:38;;;;;;;3.17;1.33;;;5.20;99.90;;;;;;5012464;28;20042;-57
2021/01/20 07:07:05;;;;;;;2.63;1.20;;;5.20;99.90;;;;;;5012272;28;20049;-56
2021/01/20 07:09:49;;;;;;;2.40;1.40;;;5.20;99.90;;;;;;5012100;28;20038;-56
2021/01/20 07:12:23;;;;;;;3.08;1.40;;;5.20;99.90;;;;;;5012524;28;20034;-56
2021/01/20 07:14:53;;;;;;;3.70;1.77;;;5.20;99.90;;;;;;5010798;28;20042;-58
2021/01/20 07:17:20;;;;;;;2.78;1.30;;;5.20;99.90;;;;;;5010792;28;20037;-58
2021/01/20 07:19:48;;;;;;;2.70;1.52;;;5.30;99.90;;;;;;5012218;28;20034;-56
2021/01/20 07:22:16;;;;;;;3.03;1.48;;;5.30;99.90;;;;;;5012153;28;20109;-58
2021/01/20 07:24:42;;;;;;;3.85;1.70;;;5.30;99.90;;;;;;5012372;28;20041;-58
2021/01/20 07:27:11;;;;;;;3.13;1.83;;;5.30;99.90;;;;;;5012110;28;20036;-58
2021/01/20 07:29:38;;;;;;;4.60;2.10;;;5.30;99.90;;;;;;5011711;28;20029;-56
2021/01/20 07:32:05;;;;;;;4.35;1.67;;;5.30;99.90;;;;;;5012005;28;20026;-58
2021/01/20 07:34:44;;;;;;;4.00;1.52;;;5.30;99.90;;;;;;5010696;28;20037;-56
2021/01/20 07:37:15;;;;;;;2.70;1.30;;;5.40;99.90;;;;;;5010997;28;20036;-57
2021/01/20 07:39:43;;;;;;;4.32;1.70;;;5.40;99.90;;;;;;5011905;28;20045;-57
2021/01/20 07:42:09;;;;;;;5.38;1.92;;;5.40;99.90;;;;;;5011710;28;20026;-58
2021/01/20 07:44:48;;;;;;;4.13;1.90;;;5.40;99.90;;;;;;5008167;28;20084;-57
2021/01/20 07:47:13;;;;;;;3.70;1.90;;;5.50;99.90;;;;;;5004782;28;20026;-58
2021/01/20 07:49:52;;;;;;;4.63;1.67;;;5.40;99.90;;;;;;5002425;28;20037;-57
2021/01/20 07:52:21;;;;;;;3.38;1.60;;;5.50;99.90;;;;;;5031916;28;20152;-57
2021/01/20 07:54:48;;;;;;;4.95;2.08;;;5.40;99.90;;;;;;5031741;28;20038;-57
2021/01/20 07:57:20;;;;;;;4.65;1.58;;;5.50;99.90;;;;;;5034788;28;20075;-57
2021/01/20 08:00:08;;;;;;;4.07;1.52;;;5.50;99.90;;;;;;5034698;28;20053;-58
2021/01/20 08:02:46;;;;;;;3.55;1.70;;;5.60;99.90;;;;;;5033879;28;20026;-58
2021/01/20 08:05:12;;;;;;;4.03;1.80;;;5.60;99.90;;;;;;5034292;28;20030;-57
2021/01/20 08:07:38;;;;;;;5.18;1.80;;;5.50;99.90;;;;;;5033907;28;20029;-58
2021/01/20 08:10:15;;;;;;;3.45;1.70;;;5.40;99.90;;;;;;5032878;28;20040;-58
2021/01/20 08:12:41;;;;;;;6.22;1.88;;;5.40;99.90;;;;;;5033190;28;20148;-58
2021/01/20 08:15:08;;;;;;;3.92;1.77;;;5.40;99.90;;;;;;5034057;28;20088;-58
2021/01/20 08:17:34;;;;;;;2.78;1.58;;;5.40;99.90;;;;;;5033582;28;20064;-58
2021/01/20 08:20:00;;;;;;;3.15;1.30;;;5.40;99.90;;;;;;5025846;28;20112;-58
2021/01/20 08:22:26;;;;;;;4.97;1.88;;;5.50;99.90;;;;;;5015411;28;20064;-58
2021/01/20 08:24:53;;;;;;;3.88;1.67;;;5.50;99.90;;;;;;5013790;28;20022;-54
2021/01/20 08:27:27;;;;;;;4.32;1.65;;;5.50;99.90;;;;;;5014091;28;20037;-57
2021/01/20 08:29:58;;;;;;;3.95;2.15;;;5.60;99.90;;;;;;5015225;28;20088;-58
2021/01/20 08:32:25;;;;;;;4.25;1.95;;;5.60;99.90;;;;;;5013778;28;20033;-57
2021/01/20 08:34:55;;;;;;;5.72;1.98;;;5.70;99.90;;;;;;5014122;28;20041;-58
2021/01/20 08:37:34;;;;;;;7.32;2.53;;;5.70;99.90;;;;;;5014006;28;20065;-58
2021/01/20 08:40:07;;;;;;;5.05;2.05;;;5.60;99.90;;;;;;5014829;28;20121;-58
2021/01/20 08:42:36;;;;;;;5.28;1.80;;;5.70;99.90;;;;;;5014604;28;20096;-58
2021/01/20 08:45:07;;;;;;;3.38;1.70;;;5.70;99.90;;;;;;5014848;28;20084;-59
2021/01/20 08:47:48;;;;;;;4.63;2.08;;;5.50;99.90;;;;;;5014620;28;20045;-59
2021/01/20 08:50:20;;;;;;;4.07;1.90;;;5.60;99.90;;;;;;5024615;28;20028;-58
2021/01/20 08:52:51;;;;;;;4.10;1.95;;;5.60;99.90;;;;;;5033098;28;20288;-58
2021/01/20 08:55:32;;;;;;;5.57;1.65;;;5.70;99.90;;;;;;5029581;28;20061;-57
2021/01/20 08:58:34;;;;;;;4.45;1.80;;;5.70;99.90;;;;;;5032626;28;20030;-57
2021/01/20 09:01:22;;;;;;;4.18;1.63;;;5.80;99.90;;;;;;4957170;28;20043;-58
2021/01/20 09:04:00;;;;;;;3.65;1.83;;;5.80;99.90;;;;;;5031276;28;20041;-55
2021/01/20 09:06:27;;;;;;;6.18;1.73;;;5.90;99.90;;;;;;5033745;28;20091;-58
2021/01/20 09:08:55;;;;;;;3.80;1.90;;;5.90;99.90;;;;;;5033228;28;20120;-57
2021/01/20 09:11:22;;;;;;;4.47;1.98;;;6.00;99.90;;;;;;5034016;28;20048;-56
2021/01/20 09:13:50;;;;;;;2.78;1.55;;;6.00;99.90;;;;;;5033613;28;20056;-56
2021/01/20 09:16:24;;;;;;;4.32;1.60;;;6.10;99.90;;;;;;5034222;28;20021;-55
2021/01/20 09:18:50;;;;;;;6.20;1.70;;;6.00;99.90;;;;;;5032645;28;20044;-57
2021/01/20 09:21:16;;;;;;;3.35;1.45;;;6.10;99.90;;;;;;5015371;28;20108;-58
2021/01/20 09:23:42;;;;;;;5.75;1.67;;;6.20;99.90;;;;;;5013936;28;20029;-58
2021/01/20 09:26:08;;;;;;;4.18;1.73;;;6.20;99.90;;;;;;5012736;28;20026;-58
2021/01/20 09:28:35;;;;;;;4.72;1.65;;;6.20;99.90;;;;;;5012746;28;20086;-57
2021/01/20 09:31:01;;;;;;;6.80;2.10;;;6.30;99.90;;;;;;5014022;28;20022;-57
2021/01/20 09:33:27;;;;;;;6.65;2.20;;;6.30;99.90;;;;;;5013788;28;20056;-58
2021/01/20 09:35:53;;;;;;;6.50;1.77;;;6.30;99.90;;;;;;5014033;28;20081;-58
2021/01/20 09:38:21;;;;;;;4.07;1.80;;;6.30;99.90;;;;;;5013754;28;20033;-58
2021/01/20 09:40:47;;;;;;;4.95;2.13;;;6.30;99.90;;;;;;5013735;28;20111;-58
2021/01/20 09:43:13;;;;;;;4.40;1.92;;;6.40;99.90;;;;;;5013636;28;20030;-59
2021/01/20 09:45:39;;;;;;;4.07;1.70;;;6.30;99.90;;;;;;5013482;28;20037;-58
2021/01/20 09:48:09;;;;;;;3.78;1.98;;;6.40;99.90;;;;;;5012319;28;20056;-57
2021/01/20 09:50:36;;;;;;;3.65;1.88;;;6.40;99.90;;;;;;5026383;28;20075;-59
2021/01/20 09:53:04;;;;;;;4.03;1.48;;;6.40;99.90;;;;;;4998849;28;20050;-61
2021/01/20 09:55:31;;;;;;;3.25;1.63;;;6.50;99.90;;;;;;5001595;28;20033;-57
2021/01/20 09:58:02;;;;;;;3.13;1.42;;;6.60;99.90;;;;;;5004130;28;20026;-58
2021/01/20 10:00:28;;;;;;;4.65;1.88;;;6.60;99.90;;;;;;5012389;28;20042;-55
2021/01/20 10:02:54;;;;;;;3.40;1.75;;;6.80;99.90;;;;;;5012500;28;20037;-57
2021/01/20 10:05:20;;;;;;;4.07;1.75;;;6.90;99.90;;;;;;5013606;28;20030;-57
2021/01/20 10:07:46;;;;;;;4.22;1.65;;;6.90;99.90;;;;;;5013180;28;20391;-58
2021/01/20 10:10:13;;;;;;;4.07;1.80;;;6.90;99.90;;;;;;5013306;28;20068;-58
2021/01/20 10:12:40;;;;;;;4.10;1.77;;;7.00;99.90;;;;;;5013414;28;20026;-57
2021/01/20 10:15:08;;;;;;;5.82;2.13;;;7.10;99.90;;;;;;5012916;28;20054;-58
2021/01/20 10:17:35;;;;;;;3.22;1.85;;;7.30;99.90;;;;;;5011491;28;20026;-59
2021/01/20 10:20:04;;;;;;;6.85;2.00;;;7.20;99.90;;;;;;5020874;28;20071;-59
2021/01/20 10:22:30;;;;;;;2.58;1.50;;;7.30;99.90;;;;;;5032968;28;20113;-59
2021/01/20 10:24:56;;;;;;;2.58;1.48;;;7.20;99.90;;;;;;5031681;28;20112;-59
2021/01/20 10:27:22;;;;;;;4.13;1.60;;;7.40;99.90;;;;;;5032941;28;20030;-57
2021/01/20 10:29:49;;;;;;;3.83;1.52;;;7.40;99.90;;;;;;5032272;28;20056;-59
2021/01/20 10:32:15;;;;;;;5.75;1.88;;;7.50;99.90;;;;;;5031573;28;20030;-58
2021/01/20 10:34:41;;;;;;;3.85;1.60;;;7.50;99.90;;;;;;5032624;28;20033;-58
2021/01/20 10:37:07;;;;;;;3.70;1.70;;;7.50;99.90;;;;;;5014820;28;20087;-59
2021/01/20 10:39:32;;;;;;;3.70;1.77;;;7.60;99.90;;;;;;5032651;28;20033;-58
2021/01/20 10:41:58;;;;;;;4.57;2.13;;;7.70;99.90;;;;;;5032393;28;20038;-59
2021/01/20 10:44:24;;;;;;;4.53;1.77;;;7.70;99.90;;;;;;5032400;28;20052;-59
2021/01/20 10:46:50;;;;;;;7.90;1.70;;;7.80;99.90;;;;;;5032434;28;20033;-59
2021/01/20 10:49:16;;;;;;;3.05;1.60;;;7.80;99.90;;;;;;5030291;28;20037;-59
2021/01/20 10:51:42;;;;;;;6.30;2.28;;;7.90;99.90;;;;;;5014018;28;20113;-54
2021/01/20 10:54:08;;;;;;;4.30;1.73;;;8.00;99.90;;;;;;5013666;28;20037;-53
2021/01/20 10:56:34;;;;;;;5.93;2.05;;;8.10;99.90;;;;;;5012302;28;20088;-57
2021/01/20 10:59:01;;;;;;;7.97;3.28;;;8.20;99.90;;;;;;5012805;28;20030;-55
2021/01/20 11:01:27;;;;;;;4.22;2.17;;;8.20;99.90;;;;;;5012579;28;20030;-59
2021/01/20 11:03:53;;;;;;;3.97;1.52;;;8.30;99.90;;;;;;5012335;28;20038;-55
2021/01/20 11:06:19;;;;;;;4.03;1.42;;;8.30;99.90;;;;;;5012408;28;20112;-59
2021/01/20 11:08:45;;;;;;;4.03;1.70;;;8.40;99.90;;;;;;5012295;28;20184;-60
2021/01/20 11:11:12;;;;;;;3.15;1.45;;;8.40;99.90;;;;;;5012672;28;20038;-60
2021/01/20 11:13:39;;;;;;;2.50;1.48;;;8.30;99.90;;;;;;5012015;28;20056;-56
2021/01/20 11:16:06;;;;;;;2.80;1.30;;;8.40;99.90;;;;;;5011176;28;20052;-59
2021/01/20 11:18:33;;;;;;;5.70;1.90;;;8.40;99.90;;;;;;5010958;28;20044;-62
2021/01/20 11:21:00;;;;;;;2.90;1.40;;;8.50;99.90;;;;;;5028346;28;20518;-57
2021/01/20 11:23:27;;;;;;;4.03;1.45;;;8.60;99.90;;;;;;5031710;28;20037;-63
2021/01/20 11:25:54;;;;;;;4.25;1.17;;;8.70;99.70;;;;;;5030329;28;20037;-67
2021/01/20 11:28:21;;;;;;;1.83;1.05;;;8.80;99.90;;;;;;5032154;28;20113;-64
2021/01/20 11:30:48;;;;;;;3.08;1.20;;;8.80;99.50;;;;;;5034866;28;20083;-59
2021/01/20 11:33:14;;;;;;;2.42;1.20;;;8.90;99.90;;;;;;5035665;28;20029;-60
2021/01/20 11:35:40;;;;;;;7.25;1.35;;;8.90;99.80;;;;;;5035638;28;20091;-56
2021/01/20 11:38:07;;;;;;;4.38;1.60;;;8.90;99.90;;;;;;5035771;28;20093;-59
2021/01/20 11:40:35;;;;;;;2.13;1.00;;;9.00;99.90;;;;;;5035569;28;20038;-58
2021/01/20 11:43:01;;;;;;;2.88;1.50;;;8.90;99.90;;;;;;5035306;28;20034;-59
2021/01/20 11:45:33;;;;;;;6.53;1.48;;;9.00;99.70;;;;;;5035699;28;20031;-59
2021/01/20 11:48:00;;;;;;;4.03;1.60;;;9.10;99.20;;;;;;5034449;28;20079;-60
2021/01/20 11:50:26;;;;;;;4.35;1.50;;;9.10;99.40;;;;;;5023774;28;20064;-59
2021/01/20 11:52:54;;;;;;;5.07;1.48;;;9.10;99.30;;;;;;5014116;28;20115;-58
2021/01/20 11:55:24;;;;;;;4.55;1.40;;;9.20;98.70;;;;;;5015581;28;20091;-58
2021/01/20 11:57:51;;;;;;;1.95;1.30;;;9.30;98.90;;;;;;5015703;28;20034;-59
2021/01/20 12:00:19;;;;;;;3.22;1.45;;;9.40;98.10;;;;;;5015473;28;20044;-58
2021/01/20 12:02:45;;;;;;;3.28;1.90;;;9.40;99.30;;;;;;5015654;28;20030;-57
2021/01/20 12:05:14;;;;;;;7.82;1.85;;;9.70;99.30;;;;;;5015735;28;20033;-57
2021/01/20 12:07:43;;;;;;;10.90;2.05;;;9.80;98.00;;;;;;5015426;28;20035;-59
2021/01/20 12:10:14;;;;;;;4.80;1.50;;;9.90;97.10;;;;;;5014214;28;20026;-59
2021/01/20 12:12:43;;;;;;;3.28;1.27;;;9.90;97.20;;;;;;5015257;28;20076;-59
2021/01/20 12:15:11;;;;;;;3.13;1.50;;;9.80;97.90;;;;;;5015095;28;20054;-59
2021/01/20 12:17:37;;;;;;;4.65;1.23;;;9.90;97.60;;;;;;5014155;28;20030;-60
2021/01/20 12:20:07;;;;;;;2.65;1.10;;;10.00;98.70;;;;;;5023932;28;20060;-59
2021/01/20 12:22:34;;;;;;;2.58;1.10;;;10.30;95.90;;;;;;5035169;28;20164;-58
2021/01/20 12:25:01;;;;;;;5.47;1.52;;;10.20;96.40;;;;;;5034795;28;20038;-60
2021/01/20 12:27:30;;;;;;;3.42;1.35;;;10.40;97.80;;;;;;5033883;28;20079;-58
2021/01/20 12:29:56;;;;;;;3.92;1.30;;;10.20;97.50;;;;;;5000868;28;20074;-59
2021/01/20 12:32:22;;;;;;;2.70;1.45;;;10.20;97.40;;;;;;5034780;28;20099;-60
2021/01/20 12:34:47;;;;;;;2.80;1.42;;;10.30;97.20;;;;;;5034610;28;20033;-59
2021/01/20 12:37:13;;;;;;;4.60;1.58;;;10.30;98.10;;;;;;5034254;28;20026;-59
2021/01/20 12:39:39;;;;;;;2.22;1.20;;;10.10;98.60;;;;;;5034507;28;20037;-59
2021/01/20 12:42:06;;;;;;;3.15;1.00;;;10.20;98.50;;;;;;5033797;28;20036;-60
2021/01/20 12:44:32;;;;;;;3.17;1.48;;;10.30;97.10;;;;;;5027542;28;20037;-59
2021/01/20 12:46:58;;;;;;;3.03;1.10;;;10.30;98.10;;;;;;5014690;28;20032;-60
2021/01/20 12:49:24;;;;;;;2.85;1.27;;;10.10;98.60;;;;;;5018156;28;20030;-59
2021/01/20 12:51:50;;;;;;;3.15;1.23;;;10.20;97.80;;;;;;5034281;28;20029;-57
2021/01/20 12:54:16;;;;;;;2.63;1.10;;;10.20;98.10;;;;;;5023319;28;20040;-59
2021/01/20 12:56:42;;;;;;;5.43;1.23;;;10.40;97.70;;;;;;5009118;28;20077;-58
2021/01/20 12:59:08;;;;;;;3.38;1.48;;;10.40;98.00;;;;;;4999808;28;20034;-57
2021/01/20 13:01:34;;;;;;;3.65;1.05;;;10.40;98.10;;;;;;4995120;28;20044;-60
2021/01/20 13:04:00;;;;;;;2.80;0.93;;;10.40;97.00;;;;;;5012564;28;20033;-56